createdAt,value
2019-03-10T00:00:43.393Z,1.03
2019-03-10T00:01:43.493Z,2.16
2019-03-10T00:02:43.724Z,1.04
2019-03-10T00:03:43.925Z,1.83
2019-03-10T00:04:44.127Z,1.66
2019-03-10T00:05:44.260Z,1.36
2019-03-10T00:06:44.481Z,1.35
2019-03-10T00:07:44.687Z,1.08
2019-03-10T00:08:44.852Z,0.63
2019-03-10T00:10:44.986Z,1.34
2019-03-10T00:11:45.174Z,1.62
2019-03-10T00:12:45.293Z,2.05
2019-03-10T00:13:45.450Z,1.66
2019-03-10T00:14:45.686Z,1.94
2019-03-10T00:15:46.024Z,1.20
2019-03-10T00:16:46.313Z,1.05
2019-03-10T00:17:46.719Z,2.67
2019-03-10T00:18:46.896Z,1.22
2019-03-10T00:19:47.125Z,2.91
2019-03-10T00:20:47.260Z,1.31
2019-03-10T00:21:47.410Z,1.55
2019-03-10T00:22:47.502Z,1.35
2019-03-10T00:23:47.583Z,0.90
2019-03-10T00:24:47.655Z,3.23
2019-03-10T00:25:47.791Z,1.79
2019-03-10T00:26:47.940Z,3.00
2019-03-10T00:27:47.984Z,1.17
2019-03-10T00:28:48.064Z,1.35
2019-03-10T00:29:48.196Z,3.07
2019-03-10T00:30:48.309Z,1.98
2019-03-10T00:31:48.399Z,3.49
2019-03-10T00:32:48.515Z,3.06
2019-03-10T00:33:48.631Z,2.78
2019-03-10T00:34:48.733Z,2.39
2019-03-10T00:35:48.894Z,1.81
2019-03-10T00:36:48.945Z,1.89
2019-03-10T00:37:49.112Z,1.43
2019-03-10T00:38:49.223Z,3.22
2019-03-10T00:39:49.671Z,4.88
2019-03-10T00:40:50.083Z,4.05
2019-03-10T00:41:50.457Z,1.29
2019-03-10T00:42:50.724Z,4.13
2019-03-10T00:43:50.934Z,1.69
2019-03-10T00:44:51.415Z,2.65
2019-03-10T00:45:51.872Z,3.42
2019-03-10T00:46:52.051Z,2.52
2019-03-10T00:47:52.551Z,3.37
2019-03-10T00:48:52.973Z,4.69
2019-03-10T00:49:52.930Z,2.01
2019-03-10T00:50:53.043Z,5.39
2019-03-10T00:51:53.210Z,3.20
2019-03-10T00:52:53.378Z,2.09
2019-03-10T00:53:53.464Z,4.06
2019-03-10T00:54:53.657Z,1.76
2019-03-10T00:55:53.817Z,2.90
2019-03-10T00:56:53.974Z,2.00
2019-03-10T00:57:54.097Z,2.24
2019-03-10T00:58:54.171Z,1.79
2019-03-10T00:59:54.375Z,0.97
2019-03-10T01:00:54.618Z,1.07
2019-03-10T01:01:54.844Z,1.84
2019-03-10T01:02:54.957Z,4.33
2019-03-10T01:03:55.170Z,2.44
2019-03-10T01:04:55.350Z,2.11
2019-03-10T01:05:55.445Z,2.64
2019-03-10T01:06:55.579Z,3.11
2019-03-10T01:07:55.769Z,2.14
2019-03-10T01:08:55.934Z,1.38
2019-03-10T01:10:56.116Z,0.89
2019-03-10T01:11:56.305Z,1.94
2019-03-10T01:12:56.395Z,1.21
2019-03-10T01:13:56.571Z,1.48
2019-03-10T01:14:56.719Z,2.32
2019-03-10T01:15:56.791Z,2.61
2019-03-10T01:16:56.997Z,0.99
2019-03-10T01:17:57.122Z,0.45
2019-03-10T01:18:57.229Z,2.59
2019-03-10T01:19:57.485Z,3.51
2019-03-10T01:20:57.687Z,2.26
2019-03-10T01:21:57.839Z,1.08
2019-03-10T01:22:58.012Z,1.43
2019-03-10T01:23:58.286Z,2.48
2019-03-10T01:24:58.514Z,1.43
2019-03-10T01:25:58.716Z,0.89
2019-03-10T01:26:58.866Z,1.88
2019-03-10T01:27:58.993Z,1.04
2019-03-10T01:28:59.204Z,0.25
2019-03-10T01:29:59.432Z,0.91
2019-03-10T01:30:59.648Z,1.87
2019-03-10T01:32:00.168Z,2.33
2019-03-10T01:33:00.170Z,1.48
2019-03-10T01:34:00.721Z,1.01
2019-03-10T01:36:01.058Z,0.16
2019-03-10T01:37:01.328Z,1.51
2019-03-10T01:38:01.670Z,1.55
2019-03-10T01:39:02.525Z,1.77
2019-03-10T01:40:02.163Z,1.51
2019-03-10T01:41:02.365Z,0.35
2019-03-10T01:42:02.523Z,0.34
2019-03-10T01:43:02.682Z,0.35
2019-03-10T01:44:02.787Z,0.89
2019-03-10T01:45:03.067Z,0.32
2019-03-10T01:46:02.941Z,1.54
2019-03-10T01:47:03.264Z,0.77
2019-03-10T01:48:03.392Z,0.07
2019-03-10T01:49:03.507Z,0.32
2019-03-10T01:50:03.711Z,0.07
2019-03-10T01:51:04.001Z,0.84
2019-03-10T01:52:04.037Z,1.22
2019-03-10T01:53:04.195Z,0.51
2019-03-10T01:54:04.301Z,0.91
2019-03-10T01:55:04.366Z,0.56
2019-03-10T01:56:04.570Z,0.37
2019-03-10T01:57:04.689Z,0.34
2019-03-10T01:58:04.855Z,0.28
2019-03-10T01:59:04.963Z,0.00
2019-03-10T02:00:05.084Z,0.00
2019-03-10T02:01:05.334Z,0.51
2019-03-10T02:02:05.519Z,0.69
2019-03-10T02:03:05.679Z,1.17
2019-03-10T02:04:05.797Z,0.28
2019-03-10T02:05:06.058Z,0.15
2019-03-10T02:06:06.398Z,0.73
2019-03-10T02:07:06.541Z,1.02
2019-03-10T02:08:06.673Z,1.13
2019-03-10T02:09:06.754Z,0.42
2019-03-10T02:10:06.957Z,0.35
2019-03-10T02:11:07.383Z,0.03
2019-03-10T02:12:07.498Z,0.00
2019-03-10T02:13:07.689Z,0.73
2019-03-10T02:14:07.873Z,1.07
2019-03-10T02:15:08.038Z,0.96
2019-03-10T02:16:08.290Z,0.73
2019-03-10T02:17:08.451Z,1.17
2019-03-10T02:18:08.540Z,1.36
2019-03-10T02:19:08.718Z,0.41
2019-03-10T02:20:08.885Z,0.68
2019-03-10T02:21:08.897Z,0.61
2019-03-10T02:22:09.064Z,0.77
2019-03-10T02:23:09.242Z,0.66
2019-03-10T02:24:09.367Z,1.13
2019-03-10T02:25:09.563Z,0.85
2019-03-10T02:26:09.864Z,0.15
2019-03-10T02:27:10.032Z,0.44
2019-03-10T02:28:10.197Z,0.32
2019-03-10T02:29:10.373Z,1.35
2019-03-10T02:30:10.526Z,0.93
2019-03-10T02:31:10.893Z,0.01
2019-03-10T02:32:11.051Z,0.00
2019-03-10T02:33:11.255Z,0.25
2019-03-10T02:34:11.426Z,0.14
2019-03-10T02:35:11.534Z,0.30
2019-03-10T02:36:11.612Z,0.68
2019-03-10T02:37:11.809Z,0.20
2019-03-10T02:38:11.919Z,0.77
2019-03-10T02:39:12.113Z,0.78
2019-03-10T02:40:12.219Z,0.59
2019-03-10T02:41:12.370Z,0.59
2019-03-10T02:42:12.475Z,0.62
2019-03-10T02:43:12.634Z,0.82
2019-03-10T02:44:12.822Z,1.13
2019-03-10T02:45:13.128Z,0.52
2019-03-10T02:46:13.325Z,1.07
2019-03-10T02:47:13.541Z,0.65
2019-03-10T02:48:13.787Z,0.37
2019-03-10T02:49:13.998Z,0.29
2019-03-10T02:50:14.149Z,0.52
2019-03-10T02:51:14.355Z,1.07
2019-03-10T02:52:14.546Z,0.72
2019-03-10T02:53:14.724Z,0.31
2019-03-10T02:54:14.802Z,0.00
2019-03-10T02:55:15.015Z,0.00
2019-03-10T02:56:15.215Z,0.32
2019-03-10T02:57:15.444Z,0.15
2019-03-10T02:58:15.672Z,0.00
2019-03-10T02:59:15.823Z,0.00
2019-03-10T03:00:16.162Z,0.35
2019-03-10T03:01:16.442Z,0.56
2019-03-10T03:02:16.588Z,0.97
2019-03-10T03:03:16.724Z,0.70
2019-03-10T03:04:16.988Z,0.90
2019-03-10T03:05:17.144Z,1.32
2019-03-10T03:06:17.389Z,1.55
2019-03-10T03:07:17.502Z,1.45
2019-03-10T03:08:17.693Z,1.44
2019-03-10T03:09:17.850Z,1.49
2019-03-10T03:10:17.953Z,1.28
2019-03-10T03:11:18.059Z,1.27
2019-03-10T03:12:18.184Z,0.96
2019-03-10T03:13:18.280Z,0.76
2019-03-10T03:14:18.369Z,0.97
2019-03-10T03:15:18.495Z,0.85
2019-03-10T03:16:18.608Z,0.94
2019-03-10T03:17:18.726Z,1.06
2019-03-10T03:18:18.787Z,0.34
2019-03-10T03:19:18.886Z,0.89
2019-03-10T03:20:19.045Z,0.99
2019-03-10T03:21:19.147Z,0.17
2019-03-10T03:22:19.217Z,0.45
2019-03-10T03:23:19.366Z,0.99
2019-03-10T03:24:19.436Z,0.99
2019-03-10T03:25:19.517Z,0.68
2019-03-10T03:26:19.645Z,1.24
2019-03-10T03:27:19.758Z,1.51
2019-03-10T03:28:19.916Z,1.23
2019-03-10T03:29:19.990Z,2.18
2019-03-10T03:30:20.045Z,1.06
2019-03-10T03:31:20.203Z,0.66
2019-03-10T03:32:20.342Z,0.55
2019-03-10T03:33:20.541Z,1.62
2019-03-10T03:34:20.757Z,0.68
2019-03-10T03:35:21.004Z,0.80
2019-03-10T03:36:21.021Z,0.77
2019-03-10T03:37:21.257Z,0.72
2019-03-10T03:38:21.766Z,0.52
2019-03-10T03:39:22.102Z,1.01
2019-03-10T03:40:22.463Z,0.14
2019-03-10T03:41:22.650Z,0.15
2019-03-10T03:42:22.875Z,0.39
2019-03-10T03:43:23.118Z,1.13
2019-03-10T03:44:23.287Z,1.79
2019-03-10T03:45:23.493Z,1.88
2019-03-10T03:46:23.662Z,2.21
2019-03-10T03:47:23.844Z,2.01
2019-03-10T03:48:24.045Z,2.04
2019-03-10T03:49:24.301Z,2.43
2019-03-10T03:50:24.516Z,1.10
2019-03-10T03:51:24.716Z,0.89
2019-03-10T03:53:24.923Z,1.11
2019-03-10T03:54:25.063Z,0.69
2019-03-10T03:55:25.135Z,0.79
2019-03-10T03:56:25.423Z,0.72
2019-03-10T03:57:25.595Z,0.08
2019-03-10T03:58:25.790Z,0.55
2019-03-10T03:59:26.042Z,0.83
2019-03-10T04:00:26.164Z,1.38
2019-03-10T04:01:26.410Z,1.03
2019-03-10T04:02:26.397Z,1.04
2019-03-10T04:03:26.661Z,0.65
2019-03-10T04:04:26.810Z,0.39
2019-03-10T04:05:27.032Z,0.66
2019-03-10T04:06:27.149Z,0.31
2019-03-10T04:07:27.281Z,0.04
2019-03-10T04:08:27.505Z,0.00
2019-03-10T04:09:27.669Z,0.13
2019-03-10T04:10:27.795Z,0.28
2019-03-10T04:11:27.937Z,0.00
2019-03-10T04:12:28.017Z,0.00
2019-03-10T04:13:28.135Z,0.00
2019-03-10T04:14:28.325Z,0.00
2019-03-10T04:15:28.514Z,0.04
2019-03-10T04:16:28.701Z,0.31
2019-03-10T04:17:28.900Z,0.31
2019-03-10T04:18:29.188Z,0.48
2019-03-10T04:19:29.527Z,0.21
2019-03-10T04:20:29.686Z,0.43
2019-03-10T04:21:29.950Z,0.45
2019-03-10T04:22:30.177Z,0.25
2019-03-10T04:23:30.321Z,0.27
2019-03-10T04:24:30.485Z,0.24
2019-03-10T04:25:30.747Z,0.20
2019-03-10T04:26:30.989Z,0.11
2019-03-10T04:27:31.201Z,0.21
2019-03-10T04:28:31.409Z,0.84
2019-03-10T04:29:31.684Z,0.44
2019-03-10T04:30:31.755Z,0.00
2019-03-10T04:31:31.901Z,0.00
2019-03-10T04:32:32.080Z,0.00
2019-03-10T04:33:32.294Z,0.06
2019-03-10T04:34:32.160Z,0.00
2019-03-10T04:35:32.763Z,0.00
2019-03-10T04:36:32.890Z,0.28
2019-03-10T04:37:33.105Z,0.30
2019-03-10T04:38:33.223Z,0.04
2019-03-10T04:39:33.308Z,0.00
2019-03-10T04:40:33.432Z,0.23
2019-03-10T04:41:33.535Z,0.34
2019-03-10T04:42:33.808Z,0.07
2019-03-10T04:43:33.861Z,0.15
2019-03-10T04:44:36.140Z,0.16
2019-03-10T04:45:34.041Z,0.31
2019-03-10T04:46:34.091Z,0.46
2019-03-10T04:47:34.218Z,0.86
2019-03-10T04:48:34.333Z,0.54
2019-03-10T04:49:34.511Z,1.02
2019-03-10T04:50:34.561Z,1.16
2019-03-10T04:51:34.606Z,1.13
2019-03-10T04:52:34.691Z,0.90
2019-03-10T04:53:34.835Z,1.63
2019-03-10T04:54:34.919Z,1.41
2019-03-10T04:55:35.235Z,0.73
2019-03-10T04:56:35.646Z,1.14
2019-03-10T04:57:35.696Z,1.18
2019-03-10T04:58:35.826Z,0.84
2019-03-10T04:59:36.438Z,0.38
2019-03-10T05:00:36.596Z,0.56
2019-03-10T05:01:36.926Z,0.48
2019-03-10T05:02:37.118Z,0.83
2019-03-10T05:03:37.166Z,0.51
2019-03-10T05:04:37.646Z,0.75
2019-03-10T05:05:37.364Z,0.56
2019-03-10T05:06:37.555Z,0.65
2019-03-10T05:07:37.680Z,0.38
2019-03-10T05:08:37.855Z,0.42
2019-03-10T05:09:38.157Z,0.66
2019-03-10T05:10:38.322Z,0.17
2019-03-10T05:11:38.637Z,0.00
2019-03-10T05:12:38.967Z,0.00
2019-03-10T05:13:39.162Z,0.00
2019-03-10T05:14:39.443Z,0.00
2019-03-10T05:15:39.625Z,0.00
2019-03-10T05:16:39.814Z,0.10
2019-03-10T05:17:40.033Z,0.01
2019-03-10T05:18:40.358Z,0.38
2019-03-10T05:19:40.592Z,0.70
2019-03-10T05:20:40.834Z,0.35
2019-03-10T05:21:41.106Z,0.18
2019-03-10T05:22:41.295Z,0.17
2019-03-10T05:23:41.479Z,0.11
2019-03-10T05:24:41.833Z,0.00
2019-03-10T05:25:41.999Z,0.34
2019-03-10T05:26:42.118Z,0.04
2019-03-10T05:27:42.281Z,0.00
2019-03-10T05:28:42.492Z,0.00
2019-03-10T05:29:42.509Z,0.03
2019-03-10T05:30:42.649Z,0.32
2019-03-10T05:31:42.856Z,0.32
2019-03-10T05:32:43.188Z,0.21
2019-03-10T05:33:43.305Z,0.01
2019-03-10T05:34:43.480Z,0.25
2019-03-10T05:35:43.646Z,0.46
2019-03-10T05:36:43.817Z,0.21
2019-03-10T05:37:43.961Z,0.32
2019-03-10T05:38:44.057Z,0.58
2019-03-10T05:39:44.341Z,0.49
2019-03-10T05:40:44.593Z,0.72
2019-03-10T05:41:44.961Z,0.77
2019-03-10T05:42:45.066Z,0.95
2019-03-10T05:43:45.236Z,0.97
2019-03-10T05:44:45.440Z,0.69
2019-03-10T05:45:45.755Z,0.84
2019-03-10T05:46:46.069Z,0.17
2019-03-10T05:47:46.398Z,0.59
2019-03-10T05:48:46.501Z,0.49
2019-03-10T05:49:46.728Z,1.14
2019-03-10T05:50:46.948Z,1.01
2019-03-10T05:51:47.188Z,1.70
2019-03-10T05:52:47.418Z,1.32
2019-03-10T05:53:47.584Z,0.51
2019-03-10T05:54:47.708Z,0.80
2019-03-10T05:55:47.884Z,0.89
2019-03-10T05:56:48.061Z,1.68
2019-03-10T05:57:48.174Z,2.12
2019-03-10T05:58:48.400Z,1.61
2019-03-10T05:59:48.486Z,1.21
2019-03-10T06:00:48.754Z,0.62
2019-03-10T06:01:49.013Z,0.98
2019-03-10T06:02:49.076Z,0.77
2019-03-10T06:03:49.186Z,1.51
2019-03-10T06:04:49.230Z,1.49
2019-03-10T06:05:49.392Z,0.65
2019-03-10T06:06:49.500Z,0.82
2019-03-10T06:07:49.558Z,0.94
2019-03-10T06:08:49.773Z,1.40
2019-03-10T06:09:49.838Z,2.56
2019-03-10T06:10:50.065Z,1.44
2019-03-10T06:11:50.208Z,1.04
2019-03-10T06:12:50.438Z,1.46
2019-03-10T06:13:50.672Z,1.51
2019-03-10T06:14:50.855Z,1.74
2019-03-10T06:15:51.083Z,1.21
2019-03-10T06:16:51.326Z,1.45
2019-03-10T06:17:51.569Z,1.89
2019-03-10T06:18:51.779Z,1.25
2019-03-10T06:19:52.060Z,1.93
2019-03-10T06:20:52.356Z,1.69
2019-03-10T06:21:52.585Z,1.32
2019-03-10T06:22:52.747Z,2.66
2019-03-10T06:23:53.022Z,1.60
2019-03-10T06:24:53.253Z,1.84
2019-03-10T06:25:53.436Z,1.84
2019-03-10T06:26:53.623Z,1.04
2019-03-10T06:27:53.927Z,1.90
2019-03-10T06:28:54.136Z,1.99
2019-03-10T06:29:54.379Z,1.00
2019-03-10T06:30:56.415Z,0.55
2019-03-10T06:31:54.965Z,1.24
2019-03-10T06:32:55.160Z,1.41
2019-03-10T06:33:55.362Z,0.90
2019-03-10T06:34:55.597Z,1.27
2019-03-10T06:35:55.779Z,1.49
2019-03-10T06:37:55.995Z,1.19
2019-03-10T06:38:56.180Z,1.53
2019-03-10T06:39:56.414Z,1.13
2019-03-10T06:40:56.509Z,1.72
2019-03-10T06:41:56.567Z,1.18
2019-03-10T06:42:56.657Z,0.71
2019-03-10T06:43:56.927Z,1.11
2019-03-10T06:44:57.576Z,0.91
2019-03-10T06:45:57.350Z,0.80
2019-03-10T06:46:57.462Z,0.83
2019-03-10T06:47:57.741Z,1.44
2019-03-10T06:48:58.015Z,1.77
2019-03-10T06:49:58.088Z,0.92
2019-03-10T06:50:58.245Z,1.11
2019-03-10T06:51:58.479Z,1.31
2019-03-10T06:52:58.725Z,0.90
2019-03-10T06:53:58.895Z,2.10
2019-03-10T06:54:59.081Z,1.79
2019-03-10T06:55:59.359Z,0.70
2019-03-10T06:56:59.624Z,0.41
2019-03-10T06:57:59.786Z,2.06
2019-03-10T06:59:00.015Z,1.16
2019-03-10T07:00:00.003Z,1.79
2019-03-10T07:01:00.211Z,1.79
2019-03-10T07:02:00.354Z,2.09
2019-03-10T07:03:00.699Z,1.14
2019-03-10T07:04:01.081Z,1.08
2019-03-10T07:05:01.630Z,1.71
2019-03-10T07:06:01.896Z,1.38
2019-03-10T07:07:01.768Z,1.17
2019-03-10T07:08:02.103Z,1.85
2019-03-10T07:09:02.370Z,0.84
2019-03-10T07:10:02.632Z,1.29
2019-03-10T07:11:02.865Z,0.86
2019-03-10T07:12:03.011Z,0.74
2019-03-10T07:13:03.170Z,0.23
2019-03-10T07:14:03.408Z,0.55
2019-03-10T07:15:03.823Z,1.23
2019-03-10T07:16:03.849Z,1.25
2019-03-10T07:17:03.974Z,0.38
2019-03-10T07:18:04.096Z,0.48
2019-03-10T07:19:04.167Z,1.49
2019-03-10T07:20:04.283Z,1.82
2019-03-10T07:22:04.519Z,1.37
2019-03-10T07:23:04.653Z,1.30
2019-03-10T07:24:04.993Z,1.12
2019-03-10T07:25:05.150Z,0.58
2019-03-10T07:26:05.265Z,0.45
2019-03-10T07:27:05.385Z,0.76
2019-03-10T07:28:05.612Z,2.25
2019-03-10T07:29:05.958Z,1.16
2019-03-10T07:30:06.080Z,1.92
2019-03-10T07:31:06.434Z,2.24
2019-03-10T07:32:08.876Z,2.11
2019-03-10T07:33:07.297Z,1.64
2019-03-10T07:34:07.635Z,1.05
2019-03-10T07:35:08.075Z,2.85
2019-03-10T07:36:08.419Z,2.50
2019-03-10T07:37:08.677Z,2.64
2019-03-10T07:38:09.019Z,2.88
2019-03-10T07:39:09.519Z,2.89
2019-03-10T07:40:09.931Z,0.97
2019-03-10T07:41:09.887Z,1.01
2019-03-10T07:42:10.303Z,1.78
2019-03-10T07:43:10.810Z,1.35
2019-03-10T07:44:10.706Z,1.71
2019-03-10T07:45:11.114Z,2.04
2019-03-10T07:46:11.562Z,2.39
2019-03-10T07:47:11.522Z,3.81
2019-03-10T07:48:11.753Z,4.48
2019-03-10T07:49:12.040Z,3.41
2019-03-10T07:50:12.256Z,1.88
2019-03-10T07:51:12.917Z,3.36
2019-03-10T07:52:20.098Z,2.24
2019-03-10T07:53:13.064Z,2.62
2019-03-10T07:54:13.429Z,0.98
2019-03-10T07:56:13.529Z,3.60
2019-03-10T07:57:13.877Z,1.80
2019-03-10T07:58:13.876Z,1.38
2019-03-10T07:59:14.349Z,2.07
2019-03-10T08:00:14.588Z,1.13
2019-03-10T08:01:14.557Z,1.04
2019-03-10T08:02:14.752Z,1.95
2019-03-10T08:03:14.828Z,0.69
2019-03-10T08:04:14.998Z,1.77
2019-03-10T08:05:15.349Z,1.07
2019-03-10T08:06:15.254Z,2.84
2019-03-10T08:07:15.404Z,2.56
2019-03-10T08:08:15.870Z,3.52
2019-03-10T08:09:16.507Z,3.74
2019-03-10T08:10:16.850Z,2.82
2019-03-10T08:11:17.122Z,0.67
2019-03-10T08:12:17.290Z,1.56
2019-03-10T08:13:17.567Z,3.29
2019-03-10T08:14:17.805Z,2.07
2019-03-10T08:15:17.828Z,2.24
2019-03-10T08:16:17.869Z,2.85
2019-03-10T08:17:17.877Z,2.86
2019-03-10T08:18:18.029Z,1.79
2019-03-10T08:19:17.911Z,4.32
2019-03-10T08:20:17.891Z,3.09
2019-03-10T08:21:18.240Z,3.20
2019-03-10T08:22:18.622Z,4.09
2019-03-10T08:23:18.865Z,2.50
2019-03-10T08:24:19.489Z,2.78
2019-03-10T08:25:19.693Z,2.19
2019-03-10T08:26:20.164Z,2.30
2019-03-10T08:27:19.894Z,3.68
2019-03-10T08:28:20.584Z,4.42
2019-03-10T08:29:20.915Z,1.61
2019-03-10T08:30:21.429Z,0.36
2019-03-10T08:31:21.481Z,0.79
2019-03-10T08:32:21.500Z,3.33
2019-03-10T08:33:21.399Z,2.31
2019-03-10T08:34:21.764Z,4.18
2019-03-10T08:35:21.909Z,1.45
2019-03-10T08:36:22.344Z,2.94
2019-03-10T08:37:22.926Z,1.84
2019-03-10T08:38:23.040Z,2.10
2019-03-10T08:40:23.038Z,2.02
2019-03-10T08:41:23.308Z,2.33
2019-03-10T08:42:23.660Z,3.21
2019-03-10T08:43:23.984Z,3.14
2019-03-10T08:44:24.303Z,4.33
2019-03-10T08:45:24.417Z,1.93
2019-03-10T08:46:24.811Z,3.60
2019-03-10T08:47:24.921Z,2.30
2019-03-10T08:48:24.899Z,1.98
2019-03-10T08:49:25.481Z,3.95
2019-03-10T08:50:25.600Z,3.67
2019-03-10T08:51:26.086Z,1.01
2019-03-10T08:52:26.439Z,1.14
2019-03-10T08:53:26.514Z,3.58
2019-03-10T08:54:26.899Z,2.42
2019-03-10T08:55:26.927Z,2.41
2019-03-10T08:56:27.274Z,4.92
2019-03-10T08:57:27.328Z,2.52
2019-03-10T08:58:27.850Z,3.61
2019-03-10T08:59:28.300Z,2.71
2019-03-10T09:00:28.450Z,2.75
2019-03-10T09:02:28.990Z,4.38
2019-03-10T09:03:29.222Z,1.42
2019-03-10T09:04:29.563Z,2.35
2019-03-10T09:05:29.807Z,1.60
2019-03-10T09:06:29.931Z,1.23
2019-03-10T09:07:30.145Z,1.26
2019-03-10T09:08:30.272Z,2.22
2019-03-10T09:09:30.678Z,2.11
2019-03-10T09:10:31.205Z,2.40
2019-03-10T09:11:31.614Z,2.98
2019-03-10T09:12:31.936Z,3.48
2019-03-10T09:13:32.351Z,1.66
2019-03-10T09:14:32.613Z,2.08
2019-03-10T09:15:33.008Z,3.30
2019-03-10T09:16:33.242Z,3.25
2019-03-10T09:17:33.560Z,2.12
2019-03-10T09:18:34.010Z,2.50
2019-03-10T09:19:34.191Z,1.27
2019-03-10T09:20:34.577Z,1.84
2019-03-10T09:21:35.088Z,1.89
2019-03-10T09:22:35.482Z,4.14
2019-03-10T09:23:36.223Z,1.98
2019-03-10T09:24:36.185Z,1.69
2019-03-10T09:25:36.479Z,1.97
2019-03-10T09:26:36.811Z,2.59
2019-03-10T09:27:37.201Z,0.95
2019-03-10T09:28:37.544Z,1.43
2019-03-10T09:29:37.929Z,4.51
2019-03-10T09:30:37.899Z,2.20
2019-03-10T09:31:37.929Z,2.87
2019-03-10T09:32:38.226Z,3.39
2019-03-10T09:33:38.491Z,2.17
2019-03-10T09:34:38.712Z,2.57
2019-03-10T09:35:38.887Z,3.50
2019-03-10T09:36:38.783Z,4.45
2019-03-10T09:37:39.286Z,3.53
2019-03-10T09:38:39.088Z,3.48
2019-03-10T09:39:39.754Z,2.48
2019-03-10T09:40:39.982Z,1.95
2019-03-10T09:41:40.323Z,2.36
2019-03-10T09:42:40.699Z,1.98
2019-03-10T09:43:41.304Z,1.67
2019-03-10T09:44:41.116Z,3.08
2019-03-10T09:45:41.487Z,3.78
2019-03-10T09:46:41.840Z,3.13
2019-03-10T09:47:42.147Z,2.35
2019-03-10T09:48:42.320Z,2.19
2019-03-10T09:49:42.245Z,1.82
2019-03-10T09:50:42.575Z,1.97
2019-03-10T09:51:42.790Z,2.00
2019-03-10T09:52:43.111Z,1.32
2019-03-10T09:53:43.282Z,2.01
2019-03-10T09:54:43.452Z,1.72
2019-03-10T09:55:43.947Z,3.14
2019-03-10T09:56:44.226Z,3.77
2019-03-10T09:57:44.339Z,1.90
2019-03-10T09:58:44.608Z,2.39
2019-03-10T09:59:45.101Z,2.75
2019-03-10T10:00:45.120Z,3.73
2019-03-10T10:01:45.410Z,3.83
2019-03-10T10:02:45.891Z,2.05
2019-03-10T10:03:46.343Z,1.50
2019-03-10T10:04:46.681Z,2.77
2019-03-10T10:05:46.897Z,3.27
2019-03-10T10:06:47.246Z,1.33
2019-03-10T10:07:47.822Z,1.53
2019-03-10T10:08:47.724Z,4.59
2019-03-10T10:09:48.229Z,6.27
2019-03-10T10:10:48.633Z,4.40
2019-03-10T10:11:48.553Z,3.87
2019-03-10T10:12:48.821Z,3.18
2019-03-10T10:13:49.174Z,3.62
2019-03-10T10:14:49.392Z,6.21
2019-03-10T10:15:49.804Z,2.77
2019-03-10T10:16:50.057Z,3.75
2019-03-10T10:17:50.091Z,5.47
2019-03-10T10:18:50.556Z,3.62
2019-03-10T10:19:50.554Z,5.14
2019-03-10T10:20:51.038Z,6.48
2019-03-10T10:21:51.384Z,8.13
2019-03-10T10:22:51.388Z,5.83
2019-03-10T10:23:51.969Z,5.90
2019-03-10T10:24:51.905Z,7.10
2019-03-10T10:25:52.396Z,5.12
2019-03-10T10:26:52.807Z,5.75
2019-03-10T10:27:52.875Z,5.16
2019-03-10T10:29:53.260Z,6.83
2019-03-10T10:30:53.088Z,8.29
2019-03-10T10:31:53.501Z,6.12
2019-03-10T10:32:53.802Z,8.91
2019-03-10T10:33:53.813Z,4.56
2019-03-10T10:34:54.111Z,6.85
2019-03-10T10:35:54.670Z,5.03
2019-03-10T10:36:55.016Z,5.00
2019-03-10T10:37:55.114Z,4.77
2019-03-10T10:38:55.599Z,5.18
2019-03-10T10:39:55.595Z,7.54
2019-03-10T10:40:55.875Z,2.19
2019-03-10T10:41:56.197Z,5.06
2019-03-10T10:42:56.645Z,1.44
2019-03-10T10:43:56.792Z,2.94
2019-03-10T10:44:57.103Z,5.91
2019-03-10T10:45:57.500Z,7.71
2019-03-10T10:46:57.392Z,4.08
2019-03-10T10:47:57.541Z,6.43
2019-03-10T10:48:58.040Z,2.32
2019-03-10T10:49:58.235Z,4.81
2019-03-10T10:50:58.503Z,4.18
2019-03-10T10:51:58.859Z,2.65
2019-03-10T10:52:59.322Z,5.43
2019-03-10T10:53:59.547Z,5.70
2019-03-10T10:54:59.705Z,4.80
2019-03-10T10:55:59.763Z,8.78
2019-03-10T10:57:00.311Z,5.26
2019-03-10T10:58:00.374Z,3.85
2019-03-10T10:59:00.770Z,2.78
2019-03-10T11:00:01.431Z,4.12
2019-03-10T11:01:01.315Z,2.87
2019-03-10T11:02:01.312Z,3.20
2019-03-10T11:03:01.721Z,3.79
2019-03-10T11:04:01.868Z,6.82
2019-03-10T11:05:01.866Z,5.34
2019-03-10T11:06:02.085Z,3.63
2019-03-10T11:07:02.529Z,6.26
2019-03-10T11:08:02.682Z,5.73
2019-03-10T11:09:03.210Z,5.99
2019-03-10T11:10:03.021Z,1.89
2019-03-10T11:11:03.264Z,4.88
2019-03-10T11:12:03.528Z,4.81
2019-03-10T11:13:03.906Z,6.27
2019-03-10T11:15:04.053Z,2.40
2019-03-10T11:16:04.449Z,2.26
2019-03-10T11:17:04.771Z,3.55
2019-03-10T11:18:09.477Z,3.50
2019-03-10T11:19:05.250Z,5.44
2019-03-10T11:20:05.747Z,7.78
2019-03-10T11:21:05.769Z,5.20
2019-03-10T11:22:06.340Z,6.38
2019-03-10T11:23:06.698Z,4.43
2019-03-10T11:24:06.904Z,4.40
2019-03-10T11:25:07.978Z,2.51
2019-03-10T11:26:08.549Z,6.49
2019-03-10T11:27:07.587Z,5.74
2019-03-10T11:28:07.938Z,2.24
2019-03-10T11:29:08.310Z,5.32
2019-03-10T11:30:15.887Z,5.15
2019-03-10T11:31:08.869Z,2.79
2019-03-10T11:32:09.330Z,2.80
2019-03-10T11:33:09.464Z,4.56
2019-03-10T11:34:09.772Z,2.54
2019-03-10T11:36:10.303Z,2.70
2019-03-10T11:37:10.343Z,2.99
2019-03-10T11:38:10.683Z,4.85
2019-03-10T11:39:10.966Z,5.51
2019-03-10T11:40:11.124Z,5.58
2019-03-10T11:41:11.355Z,4.03
2019-03-10T11:42:11.595Z,5.06
2019-03-10T11:43:11.950Z,4.35
2019-03-10T11:44:12.297Z,5.00
2019-03-10T11:45:12.683Z,3.33
2019-03-10T11:46:13.086Z,3.13
2019-03-10T11:47:13.404Z,4.42
2019-03-10T11:48:13.678Z,4.92
2019-03-10T11:49:13.773Z,6.00
2019-03-10T11:50:15.243Z,2.81
2019-03-10T11:51:16.314Z,6.41
2019-03-10T11:52:14.567Z,6.86
2019-03-10T11:53:19.402Z,5.44
2019-03-10T11:54:15.338Z,3.23
2019-03-10T11:55:15.498Z,3.69
2019-03-10T11:56:15.568Z,6.62
2019-03-10T11:57:16.024Z,4.05
2019-03-10T11:58:16.342Z,1.96
2019-03-10T11:59:16.794Z,4.14
2019-03-10T12:00:17.210Z,6.09
2019-03-10T12:01:17.292Z,6.29
2019-03-10T12:02:17.566Z,6.91
2019-03-10T12:03:17.741Z,8.14
2019-03-10T12:04:17.901Z,10.00
2019-03-10T12:05:18.301Z,9.28
2019-03-10T12:06:18.336Z,8.52
2019-03-10T12:07:18.312Z,5.02
2019-03-10T12:08:18.451Z,8.61
2019-03-10T12:09:18.528Z,7.25
2019-03-10T12:10:18.621Z,3.93
2019-03-10T12:11:18.790Z,4.98
2019-03-10T12:13:18.870Z,9.37
2019-03-10T12:14:19.023Z,7.11
2019-03-10T12:15:19.526Z,11.13
2019-03-10T12:16:19.752Z,10.25
2019-03-10T12:17:19.887Z,5.79
2019-03-10T12:18:20.034Z,5.42
2019-03-10T12:19:20.150Z,8.71
2019-03-10T12:20:20.205Z,3.96
2019-03-10T12:21:22.520Z,4.28
2019-03-10T12:22:20.534Z,3.37
2019-03-10T12:23:22.833Z,7.81
2019-03-10T12:24:21.029Z,10.06
2019-03-10T12:25:21.233Z,7.09
2019-03-10T12:26:21.465Z,4.99
2019-03-10T12:27:21.614Z,6.91
2019-03-10T12:28:21.773Z,6.63
2019-03-10T12:29:21.988Z,6.50
2019-03-10T12:30:22.006Z,11.09
2019-03-10T12:31:22.235Z,11.40
2019-03-10T12:32:22.460Z,7.24
2019-03-10T12:33:22.579Z,12.92
2019-03-10T12:34:22.634Z,5.71
2019-03-10T12:35:33.541Z,2.45
2019-03-10T12:37:23.031Z,8.62
2019-03-10T12:38:23.171Z,9.51
2019-03-10T12:39:23.318Z,5.82
2019-03-10T12:40:23.425Z,9.03
2019-03-10T12:41:23.555Z,4.52
2019-03-10T12:42:23.763Z,8.17
2019-03-10T12:43:23.901Z,10.03
2019-03-10T12:44:24.076Z,10.43
2019-03-10T12:45:24.248Z,1.86
2019-03-10T12:46:24.462Z,5.76
2019-03-10T12:47:24.614Z,3.17
2019-03-10T12:48:24.759Z,4.99
2019-03-10T12:49:24.928Z,4.93
2019-03-10T12:50:25.131Z,6.33
2019-03-10T12:51:25.327Z,7.79
2019-03-10T12:52:25.494Z,3.66
2019-03-10T12:53:25.918Z,6.30
2019-03-10T12:54:26.143Z,5.79
2019-03-10T12:55:26.379Z,4.09
2019-03-10T12:56:26.535Z,7.06
2019-03-10T12:57:26.673Z,7.16
2019-03-10T12:58:26.840Z,6.19
2019-03-10T12:59:27.010Z,8.82
2019-03-10T13:00:27.206Z,5.16
2019-03-10T13:01:27.368Z,3.56
2019-03-10T13:02:27.463Z,4.67
2019-03-10T13:03:27.666Z,2.99
2019-03-10T13:04:27.735Z,5.97
2019-03-10T13:05:28.421Z,6.69
2019-03-10T13:06:28.022Z,7.02
2019-03-10T13:07:28.208Z,9.58
2019-03-10T13:08:28.409Z,6.37
2019-03-10T13:09:28.620Z,5.87
2019-03-10T13:10:28.799Z,9.12
2019-03-10T13:11:28.981Z,4.16
2019-03-10T13:12:29.191Z,8.45
2019-03-10T13:13:29.372Z,5.42
2019-03-10T13:14:30.919Z,8.54
2019-03-10T13:15:29.673Z,6.80
2019-03-10T13:16:29.810Z,8.38
2019-03-10T13:17:30.063Z,11.27
2019-03-10T13:18:30.222Z,7.62
2019-03-10T13:19:30.332Z,6.33
2019-03-10T13:20:30.596Z,8.51
2019-03-10T13:21:31.001Z,8.48
2019-03-10T13:22:31.327Z,11.50
2019-03-10T13:23:31.748Z,8.96
2019-03-10T13:24:32.005Z,7.04
2019-03-10T13:25:32.560Z,7.75
2019-03-10T13:26:32.219Z,8.68
2019-03-10T13:27:32.337Z,7.99
2019-03-10T13:28:32.436Z,13.74
2019-03-10T13:29:32.652Z,6.23
2019-03-10T13:30:32.966Z,9.03
2019-03-10T13:31:33.185Z,11.08
2019-03-10T13:32:33.368Z,6.50
2019-03-10T13:33:33.503Z,9.27
2019-03-10T13:34:33.611Z,8.13
2019-03-10T13:35:33.797Z,10.98